Eg Express — 5VFH20 — position and weather

sailwx.info

Track history (hours):
 
Tides and Currents Weather Stations Pressure Air Temp Water Temp Dewpoint Dewpoint Depression Visibility Wind Speed Wind Dir Waves Ship Positions

Eg Express

Last reported at 2018-Feb-21 18:56 UTC. Time now 2018-Feb-21 19:14 UTC.
Position N 17°56' W 062°57'.

Length 18 m; draft 2.8 m.

Type: Towing. MMSI: 671966000.

Date/timePositionNaut miles runAvg speedWind from/ knotsBaromVisibWave heightAir tempDewpointWater temp
2018-Feb-21 18:56N 17°56' W 062°57'7 0.6
2018-Feb-21 06:09N 17°49' W 062°55'0 0.9
2018-Feb-21 05:42N 17°48' W 062°55'1 1.9
2018-Feb-21 05:17N 17°48' W 062°56'1 2.0
2018-Feb-21 04:48N 17°47' W 062°56'1 2.2
2018-Feb-21 04:27N 17°46' W 062°56'1 2.3
2018-Feb-21 03:57N 17°45' W 062°56'1 3.1
2018-Feb-21 03:30N 17°43' W 062°57'2 3.0
2018-Feb-21 02:57N 17°42' W 062°57'1 3.0
2018-Feb-21 02:28N 17°41' W 062°58'1 2.8
2018-Feb-21 01:59N 17°39' W 062°59'1 2.8
2018-Feb-21 01:28N 17°38' W 062°59'1 2.9
2018-Feb-21 00:59N 17°37' W 063°00'1 3.0
2018-Feb-21 00:30N 17°35' W 063°00'6 3.1
2018-Feb-20 22:24N 17°29' W 063°02'2 5.5
2018-Feb-20 21:58N 17°29' W 062°59'0 0.3
2018-Feb-20 21:18N 17°29' W 062°59'0 0.0
2018-Feb-20 20:53N 17°29' W 062°59'0 0.0
2018-Feb-20 20:30N 17°29' W 062°59'0 0.0
2018-Feb-20 19:48N 17°29' W 062°59'0 0.0
2018-Feb-20 19:27N 17°29' W 062°59'0 0.0
2018-Feb-20 18:55N 17°29' W 062°59'0 0.0
2018-Feb-20 18:27N 17°29' W 062°59'0 0.0
2018-Feb-20 17:43N 17°29' W 062°59'0 0.0
2018-Feb-20 15:51N 17°29' W 062°59'0 0.0
2018-Feb-20 15:23N 17°29' W 062°59'0 0.0
2018-Feb-20 14:59N 17°29' W 062°59'0 0.0
2018-Feb-20 14:27N 17°29' W 062°59'0 0.0
2018-Feb-20 13:34N 17°29' W 062°59'0 0.0
2018-Feb-20 13:25N 17°29' W 062°59'0 0.0
2018-Feb-20 12:59N 17°29' W 062°59'0 0.0
2018-Feb-20 12:26N 17°29' W 062°59'0 0.0
2018-Feb-20 11:43N 17°29' W 062°59'0 0.0
2018-Feb-20 11:27N 17°29' W 062°59'0 0.0
2018-Feb-20 11:00N 17°29' W 062°59'0 0.2
2018-Feb-20 08:20N 17°29' W 062°60'0 0.0
2018-Feb-20 07:58N 17°29' W 062°60'0 0.0
2018-Feb-20 07:20N 17°29' W 062°60'0 0.0
2018-Feb-20 06:56N 17°29' W 062°60'0 0.0
2018-Feb-20 06:11N 17°29' W 062°60'0 0.0
2018-Feb-20 05:51N 17°29' W 062°60'0 0.0
2018-Feb-20 05:25N 17°29' W 062°60'0 0.0
2018-Feb-20 04:50N 17°29' W 062°60'0 0.0
2018-Feb-20 04:30N 17°29' W 062°60'0 0.0
2018-Feb-20 03:58N 17°29' W 062°60'0 0.0
2018-Feb-20 03:27N 17°29' W 062°60'0 0.0
2018-Feb-20 02:50N 17°29' W 062°60'0 0.0
2018-Feb-20 00:22N 17°29' W 062°60'0 0.0
2018-Feb-19 22:36N 17°29' W 062°60'0 0.0
2018-Feb-19 21:22N 17°29' W 062°60'0 0.0
2018-Feb-19 20:58N 17°29' W 062°60'0 0.0
2018-Feb-19 20:14N 17°29' W 062°60'0 0.0
2018-Feb-19 19:50N 17°29' W 062°60'0 0.0
2018-Feb-19 18:27N 17°29' W 062°60'0 0.0
2018-Feb-19 18:00N 17°29' W 062°60'0 0.1
2018-Feb-19 17:24N 17°29' W 062°60'0 0.1
2018-Feb-19 16:59N 17°29' W 062°60'0 0.1
2018-Feb-19 15:38N 17°29' W 062°60'10 3.0
2018-Feb-19 12:17N 17°19' W 062°56'20 3.8
2018-Feb-19 07:08N 17°05' W 062°41'24 3.7
2018-Feb-19 00:32N 16°49' W 062°22'0 3.7
2018-Feb-19 00:28N 16°49' W 062°22'2 3.9
2018-Feb-19 00:00N 16°47' W 062°21'2 4.0
2018-Feb-18 23:30N 16°46' W 062°19'2 3.7
2018-Feb-18 23:00N 16°45' W 062°18'1 2.8
2018-Feb-18 22:30N 16°44' W 062°16'1 2.4
2018-Feb-18 22:00N 16°43' W 062°16'3 0.2
2018-Feb-18 09:59N 16°41' W 062°13'2 3.4
2018-Feb-18 09:30N 16°40' W 062°12'2 4.1
2018-Feb-18 09:00N 16°38' W 062°11'2 3.6
2018-Feb-18 08:30N 16°37' W 062°10'2 3.6
2018-Feb-18 08:00N 16°35' W 062°09'2 3.6
2018-Feb-18 07:30N 16°34' W 062°08'2 3.2
2018-Feb-18 06:59N 16°32' W 062°07'2 3.5
2018-Feb-18 06:30N 16°31' W 062°06'2 3.4
2018-Feb-18 05:59N 16°29' W 062°05'2 3.9
2018-Feb-18 05:30N 16°28' W 062°04'2 3.9
2018-Feb-18 05:00N 16°26' W 062°03'2 3.9
2018-Feb-18 04:23N 16°24' W 062°02'2 4.2
2018-Feb-18 03:57N 16°23' W 062°00'26 4.5
2018-Feb-17 22:12N 16°01' W 061°47'7 4.7
2018-Feb-17 20:46N 15°55' W 061°43'  
2018-Feb-15 01:07N 16°29' W 062°07'1 3.4
2018-Feb-15 00:47N 16°30' W 062°08'1 3.5
2018-Feb-15 00:28N 16°31' W 062°09'2 3.3
2018-Feb-15 00:00N 16°32' W 062°10'2 3.3
2018-Feb-14 23:30N 16°33' W 062°11'2 3.3
2018-Feb-14 22:58N 16°35' W 062°12'2 3.4
2018-Feb-14 22:30N 16°36' W 062°13'2 3.1
2018-Feb-14 22:00N 16°37' W 062°14'2 3.6
2018-Feb-14 21:28N 16°39' W 062°16'2 4.0
2018-Feb-14 20:52N 16°40' W 062°17'2 4.3
2018-Feb-14 20:27N 16°42' W 062°18'2 4.3
2018-Feb-14 20:00N 16°43' W 062°20'2 4.2
2018-Feb-14 19:28N 16°45' W 062°21'2 4.1
2018-Feb-14 19:00N 16°46' W 062°23'61 3.6
2018-Feb-14 02:04N 17°36' W 063°01'1 4.7
2018-Feb-14 01:48N 17°37' W 063°00'2 4.7
2018-Feb-14 01:29N 17°38' W 062°60'3 4.7
2018-Feb-14 00:56N 17°41' W 062°59'3 4.7
2018-Feb-14 00:11N 17°44' W 062°57'1 4.7
2018-Feb-13 23:58N 17°45' W 062°57'  
Track history (hours):
 
Tides and Currents Weather Stations Pressure Air Temp Water Temp Dewpoint Dewpoint Depression Visibility Wind Speed Wind Dir Waves Ship Positions

Eg Express

Last reported at 2018-Feb-21 18:56 UTC. Time now 2018-Feb-21 19:14 UTC.
Position N 17°56' W 062°57'.

Length 18 m; draft 2.8 m.

Type: Towing. MMSI: 671966000.

Date/timePositionNaut miles runAvg speedWind from/ knotsBaromVisibWave heightAir tempDewpointWater temp
2018-Feb-21 18:56N 17°56' W 062°57'7 0.6
2018-Feb-21 06:09N 17°49' W 062°55'0 0.9
2018-Feb-21 05:42N 17°48' W 062°55'1 1.9
2018-Feb-21 05:17N 17°48' W 062°56'1 2.0
2018-Feb-21 04:48N 17°47' W 062°56'1 2.2
2018-Feb-21 04:27N 17°46' W 062°56'1 2.3
2018-Feb-21 03:57N 17°45' W 062°56'1 3.1
2018-Feb-21 03:30N 17°43' W 062°57'2 3.0
2018-Feb-21 02:57N 17°42' W 062°57'1 3.0
2018-Feb-21 02:28N 17°41' W 062°58'1 2.8
2018-Feb-21 01:59N 17°39' W 062°59'1 2.8
2018-Feb-21 01:28N 17°38' W 062°59'1 2.9
2018-Feb-21 00:59N 17°37' W 063°00'1 3.0
2018-Feb-21 00:30N 17°35' W 063°00'6 3.1
2018-Feb-20 22:24N 17°29' W 063°02'2 5.5
2018-Feb-20 21:58N 17°29' W 062°59'0 0.3
2018-Feb-20 21:18N 17°29' W 062°59'0 0.0
2018-Feb-20 20:53N 17°29' W 062°59'0 0.0
2018-Feb-20 20:30N 17°29' W 062°59'0 0.0
2018-Feb-20 19:48N 17°29' W 062°59'0 0.0
2018-Feb-20 19:27N 17°29' W 062°59'0 0.0
2018-Feb-20 18:55N 17°29' W 062°59'0 0.0
2018-Feb-20 18:27N 17°29' W 062°59'0 0.0
2018-Feb-20 17:43N 17°29' W 062°59'0 0.0
2018-Feb-20 15:51N 17°29' W 062°59'0 0.0
2018-Feb-20 15:23N 17°29' W 062°59'0 0.0
2018-Feb-20 14:59N 17°29' W 062°59'0 0.0
2018-Feb-20 14:27N 17°29' W 062°59'0 0.0
2018-Feb-20 13:34N 17°29' W 062°59'0 0.0
2018-Feb-20 13:25N 17°29' W 062°59'0 0.0
2018-Feb-20 12:59N 17°29' W 062°59'0 0.0
2018-Feb-20 12:26N 17°29' W 062°59'0 0.0
2018-Feb-20 11:43N 17°29' W 062°59'0 0.0
2018-Feb-20 11:27N 17°29' W 062°59'0 0.0
2018-Feb-20 11:00N 17°29' W 062°59'0 0.2
2018-Feb-20 08:20N 17°29' W 062°60'0 0.0
2018-Feb-20 07:58N 17°29' W 062°60'0 0.0
2018-Feb-20 07:20N 17°29' W 062°60'0 0.0
2018-Feb-20 06:56N 17°29' W 062°60'0 0.0
2018-Feb-20 06:11N 17°29' W 062°60'0 0.0
2018-Feb-20 05:51N 17°29' W 062°60'0 0.0
2018-Feb-20 05:25N 17°29' W 062°60'0 0.0
2018-Feb-20 04:50N 17°29' W 062°60'0 0.0
2018-Feb-20 04:30N 17°29' W 062°60'0 0.0
2018-Feb-20 03:58N 17°29' W 062°60'0 0.0
2018-Feb-20 03:27N 17°29' W 062°60'0 0.0
2018-Feb-20 02:50N 17°29' W 062°60'0 0.0
2018-Feb-20 00:22N 17°29' W 062°60'0 0.0
2018-Feb-19 22:36N 17°29' W 062°60'0 0.0
2018-Feb-19 21:22N 17°29' W 062°60'0 0.0
2018-Feb-19 20:58N 17°29' W 062°60'0 0.0
2018-Feb-19 20:14N 17°29' W 062°60'0 0.0
2018-Feb-19 19:50N 17°29' W 062°60'0 0.0
2018-Feb-19 18:27N 17°29' W 062°60'0 0.0
2018-Feb-19 18:00N 17°29' W 062°60'0 0.1
2018-Feb-19 17:24N 17°29' W 062°60'0 0.1
2018-Feb-19 16:59N 17°29' W 062°60'0 0.1
2018-Feb-19 15:38N 17°29' W 062°60'10 3.0
2018-Feb-19 12:17N 17°19' W 062°56'20 3.8
2018-Feb-19 07:08N 17°05' W 062°41'24 3.7
2018-Feb-19 00:32N 16°49' W 062°22'0 3.7
2018-Feb-19 00:28N 16°49' W 062°22'2 3.9
2018-Feb-19 00:00N 16°47' W 062°21'2 4.0
2018-Feb-18 23:30N 16°46' W 062°19'2 3.7
2018-Feb-18 23:00N 16°45' W 062°18'1 2.8
2018-Feb-18 22:30N 16°44' W 062°16'1 2.4
2018-Feb-18 22:00N 16°43' W 062°16'3 0.2
2018-Feb-18 09:59N 16°41' W 062°13'2 3.4
2018-Feb-18 09:30N 16°40' W 062°12'2 4.1
2018-Feb-18 09:00N 16°38' W 062°11'2 3.6
2018-Feb-18 08:30N 16°37' W 062°10'2 3.6
2018-Feb-18 08:00N 16°35' W 062°09'2 3.6
2018-Feb-18 07:30N 16°34' W 062°08'2 3.2
2018-Feb-18 06:59N 16°32' W 062°07'2 3.5
2018-Feb-18 06:30N 16°31' W 062°06'2 3.4
2018-Feb-18 05:59N 16°29' W 062°05'2 3.9
2018-Feb-18 05:30N 16°28' W 062°04'2 3.9
2018-Feb-18 05:00N 16°26' W 062°03'2 3.9
2018-Feb-18 04:23N 16°24' W 062°02'2 4.2
2018-Feb-18 03:57N 16°23' W 062°00'26 4.5
2018-Feb-17 22:12N 16°01' W 061°47'7 4.7
2018-Feb-17 20:46N 15°55' W 061°43'  
2018-Feb-15 01:07N 16°29' W 062°07'1 3.4
2018-Feb-15 00:47N 16°30' W 062°08'1 3.5
2018-Feb-15 00:28N 16°31' W 062°09'2 3.3
2018-Feb-15 00:00N 16°32' W 062°10'2 3.3
2018-Feb-14 23:30N 16°33' W 062°11'2 3.3
2018-Feb-14 22:58N 16°35' W 062°12'2 3.4
2018-Feb-14 22:30N 16°36' W 062°13'2 3.1
2018-Feb-14 22:00N 16°37' W 062°14'2 3.6
2018-Feb-14 21:28N 16°39' W 062°16'2 4.0
2018-Feb-14 20:52N 16°40' W 062°17'2 4.3
2018-Feb-14 20:27N 16°42' W 062°18'2 4.3
2018-Feb-14 20:00N 16°43' W 062°20'2 4.2
2018-Feb-14 19:28N 16°45' W 062°21'2 4.1
2018-Feb-14 19:00N 16°46' W 062°23'61 3.6
2018-Feb-14 02:04N 17°36' W 063°01'1 4.7
2018-Feb-14 01:48N 17°37' W 063°00'2 4.7
2018-Feb-14 01:29N 17°38' W 062°60'3 4.7
2018-Feb-14 00:56N 17°41' W 062°59'3 4.7
2018-Feb-14 00:11N 17°44' W 062°57'1 4.7
2018-Feb-13 23:58N 17°45' W 062°57'  

Dump ship's entire track history